Flight Track Log - Related Links

Times and Time Zones

All times are in EDT time to prevent confusion due to time zone crossing. See the SWA259 flight status page for this flight to view local times or setup timezone preferences in your user account.

Time Position Orientation Groundspeed Altitude Reporting Facility
EDT Latitude Longitude Course Direction KTS MPH feet Rate Location/Type
Thu 09:26:59 AM 41.7710 -87.7740 244° Southwest 156 180 1,800  Level FlightAware ADS-B
Thu 09:27:26 AM 41.7610 -87.8020 244° Southwest 197 227 2,400 1,610 Climbing FlightAware ADS-B
Thu 09:27:40 AM 41.7580 -87.8190 257° West 211 243 2,900 2,400 Climbing FlightAware ADS-B
Thu 09:27:56 AM 41.7570 -87.8410 267° West 220 253 3,600 2,308 Climbing FlightAware ADS-B
Thu 09:28:19 AM 41.7570 -87.8740 270° West 242 278 4,400 2,679 Climbing FlightAware ADS-B
Thu 09:28:52 AM 41.7580 -87.9260 271° West 255 293 6,100 3,103 Climbing FlightAware ADS-B
Thu 09:29:17 AM 41.7630 -87.9650 280° West 265 305 7,400 3,164 Climbing FlightAware ADS-B
Thu 09:29:47 AM 41.7690 -88.0160 279° West 271 312 9,000 3,081 Climbing FlightAware ADS-B
Thu 09:29:54 AM 41.7700 -88.0260 278° West 272 313 9,300 2,943 Climbing FlightAware ADS-B
Thu 09:30:40 AM 41.7800 -88.1040 280° West 283 326 11,600 1,786 Climbing FlightAware ADS-B
Thu 09:31:18 AM 41.7860 -88.1710 277° West 287 330 11,800 1,377 Climbing FlightAware ADS-B
Thu 09:33:43 AM 41.7820 -88.4790 269° West 381 438 15,800 1,770 Climbing FlightAware ADS-B
Thu 09:34:21 AM 41.7720 -88.5690 262° West 388 447 17,200 2,325 Climbing FlightAware ADS-B
Thu 09:35:03 AM 41.7520 -88.6670 255° West 394 453 18,900 2,250 Climbing FlightAware ADS-B
Thu 09:35:33 AM 41.7370 -88.7370 254° West 400 460 19,900 2,111 Climbing FlightAware ADS-B
Thu 09:35:57 AM 41.7250 -88.7950 255° West 405 466 20,800 1,657 Climbing FlightAware ADS-B
Thu 09:39:03 AM 41.6020 -89.2390 250° West 441 507 25,700 1,578 Climbing FlightAware ADS-B
Thu 09:39:49 AM 41.5660 -89.3680 250° West 448 516 26,900 1,432 Climbing FlightAware ADS-B
Thu 09:40:31 AM 41.5360 -89.4750 249° West 452 520 27,800 1,500 Climbing FlightAware ADS-B
Thu 09:41:09 AM 41.5080 -89.5730 249° West 447 514 28,900 1,976 Climbing FlightAware ADS-B
Thu 09:41:53 AM 41.4760 -89.6870 249° West 433 498 30,500 2,069 Climbing FlightAware ADS-B
Thu 09:42:36 AM 41.4450 -89.7950 249° West 424 488 31,900 1,535 Climbing FlightAware ADS-B
Thu 09:43:19 AM 41.4160 -89.8990 250° West 424 488 32,700 1,317 Climbing FlightAware ADS-B
Thu 09:43:58 AM 41.3890 -89.9930 249° West 418 481 33,700 1,880 Climbing FlightAware ADS-B
Thu 09:44:42 AM 41.3590 -90.0960 249° West 394 453 35,300 1,624 Climbing FlightAware ADS-B
Thu 09:45:23 AM 41.3340 -90.1850 250° West 388 447 36,000 500 Climbing FlightAware ADS-B
Thu 09:46:06 AM 41.3050 -90.2820 248° West 393 452 36,000  Level FlightAware ADS-B
Thu 09:46:50 AM 41.2770 -90.3800 249° West 397 457 36,000  Level FlightAware ADS-B
Thu 09:47:30 AM 41.2490 -90.4750 249° West 398 458 36,000  Level FlightAware ADS-B
Thu 09:48:10 AM 41.2230 -90.5660 249° West 400 460 36,000  Level FlightAware ADS-B
Thu 09:48:54 AM 41.1930 -90.6670 248° West 402 463 36,000  Level FlightAware ADS-B
Thu 09:49:35 AM 41.1650 -90.7620 249° West 406 467 36,000  Level FlightAware ADS-B
Thu 09:50:18 AM 41.1370 -90.8580 249° West 408 470 36,000  Level FlightAware ADS-B
Thu 09:50:58 AM 41.1080 -90.9530 248° West 409 471 36,000  Level FlightAware ADS-B
Thu 09:51:36 AM 41.0810 -91.0440 249° West 411 473 36,000  Level FlightAware ADS-B
Thu 09:52:16 AM 41.0530 -91.1370 248° West 412 474 36,000  Level FlightAware ADS-B
Thu 09:52:56 AM 41.0250 -91.2310 248° West 415 478 36,000  Level FlightAware ADS-B
Thu 09:53:42 AM 40.9920 -91.3400 248° West 418 481 36,000  Level FlightAware ADS-B
Thu 09:54:16 AM 40.9690 -91.4180 249° West 419 482 36,000  Level FlightAware ADS-B
Thu 09:55:00 AM 40.9370 -91.5220 248° West 422 486 36,000  Level FlightAware ADS-B
Thu 09:55:55 AM 40.8960 -91.6560 248° West 425 489 36,000  Level FlightAware ADS-B
Thu 09:56:28 AM 40.8720 -91.7350 248° West 427 491 36,000  Level FlightAware ADS-B
Thu 09:57:09 AM 40.8440 -91.8250 248° West 428 493 36,000  Level FlightAware ADS-B
Thu 09:58:01 AM 40.8010 -91.9660 248° West 434 499 36,000  Level FlightAware ADS-B
Thu 09:58:51 AM 40.7670 -92.0690 246° West 434 499 36,000  Level FlightAware ADS-B
Thu 09:59:29 AM 40.7330 -92.1820 248° West 442 509 36,000  Level FlightAware ADS-B
Thu 10:00:11 AM 40.7050 -92.2700 247° West 442 509 36,000  Level FlightAware ADS-B
Thu 10:00:47 AM 40.6740 -92.3720 248° West 445 512 36,000  Level FlightAware ADS-B
Thu 10:01:30 AM 40.6390 -92.4820 247° West 447 514 36,000  Level FlightAware ADS-B
Thu 10:02:13 AM 40.6050 -92.5910 248° West 449 517 36,000  Level FlightAware ADS-B
Thu 10:02:53 AM 40.5730 -92.6920 247° West 450 518 36,000  Level FlightAware ADS-B
Thu 10:03:37 AM 40.5370 -92.8040 247° West 452 520 36,000  Level FlightAware ADS-B
Thu 10:04:18 AM 40.5050 -92.9050 247° West 453 521 36,000  Level FlightAware ADS-B
Thu 10:04:53 AM 40.4770 -92.9930 247° West 456 525 36,000  Level FlightAware ADS-B
Thu 10:05:41 AM 40.4360 -93.1200 247° West 457 526 36,000  Level FlightAware ADS-B
Thu 10:06:22 AM 40.4030 -93.2210 247° West 459 528 36,000  Level FlightAware ADS-B
Thu 10:06:57 AM 40.3730 -93.3150 247° West 460 529 36,000  Level FlightAware ADS-B
Thu 10:07:41 AM 40.3360 -93.4260 246° West 462 532 36,000  Level FlightAware ADS-B
Thu 10:08:17 AM 40.3060 -93.5190 247° West 463 533 36,000  Level FlightAware ADS-B
Thu 10:08:57 AM 40.2720 -93.6230 247° West 465 535 36,000  Level FlightAware ADS-B
Thu 10:09:05 AM 40.2650 -93.6440 246° West 465 535 36,000  Level FlightAware ADS-B
Thu 10:09:42 AM 40.2450 -93.7030 246° West 465 535 36,000  Level FlightAware ADS-B
Thu 10:11:41 AM 40.1540 -94.0140 249° West 465 535 36,000  Level FlightAware ADS-B
Thu 10:12:26 AM 40.1150 -94.1690 252° West 465 535 36,000  Level FlightAware ADS-B
Thu 10:13:07 AM 40.0860 -94.2800 251° West 466 536 36,000  Level FlightAware ADS-B
Thu 10:13:41 AM 40.0630 -94.3690 251° West 465 535 36,000  Level FlightAware ADS-B
Thu 10:14:24 AM 40.0330 -94.4820 251° West 466 536 36,000  Level FlightAware ADS-B
Thu 10:15:19 AM 39.9940 -94.6280 251° West 468 539 36,000  Level FlightAware ADS-B
Thu 10:15:54 AM 39.9690 -94.7250 251° West 469 540 36,000  Level FlightAware ADS-B
Thu 10:16:40 AM 39.9370 -94.8460 251° West 470 541 36,000  Level FlightAware ADS-B
Thu 10:17:20 AM 39.9080 -94.9550 251° West 471 542 36,000  Level FlightAware ADS-B
Thu 10:18:02 AM 39.8780 -95.0680 251° West 472 543 36,000  Level FlightAware ADS-B
Thu 10:18:44 AM 39.8480 -95.1780 250° West 472 543 36,000  Level FlightAware ADS-B
Thu 10:19:27 AM 39.8170 -95.2950 251° West 472 543 36,000  Level FlightAware ADS-B
Thu 10:20:07 AM 39.7880 -95.4000 250° West 471 542 36,000  Level FlightAware ADS-B
Thu 10:20:43 AM 39.7620 -95.4960 251° West 472 543 36,000  Level FlightAware ADS-B
Thu 10:21:25 AM 39.7310 -95.6080 250° West 472 543 36,000  Level FlightAware ADS-B
Thu 10:22:06 AM 39.7010 -95.7170 250° West 471 542 36,000  Level FlightAware ADS-B
Thu 10:22:49 AM 39.6690 -95.8330 250° West 472 543 36,000  Level FlightAware ADS-B
Thu 10:23:33 AM 39.6360 -95.9500 250° West 473 544 36,000  Level FlightAware ADS-B
Thu 10:24:54 AM 39.5760 -96.1670 250° West 474 545 36,000  Level FlightAware ADS-B
Thu 10:25:28 AM 39.5510 -96.2560 250° West 474 545 36,000  Level FlightAware ADS-B
Thu 10:26:14 AM 39.5160 -96.3780 250° West 474 545 36,000  Level FlightAware ADS-B
Thu 10:26:54 AM 39.4860 -96.4840 250° West 474 545 36,000  Level FlightAware ADS-B
Thu 10:27:30 AM 39.4590 -96.5800 250° West 475 547 36,000  Level FlightAware ADS-B
Thu 10:28:22 AM 39.4220 -96.7120 250° West 474 545 36,000  Level FlightAware ADS-B
Thu 10:29:06 AM 39.3860 -96.8350 249° West 475 547 36,000  Level FlightAware ADS-B
Thu 10:29:52 AM 39.3510 -96.9570 250° West 476 548 36,000  Level FlightAware ADS-B
Thu 10:30:24 AM 39.3260 -97.0430 249° West 477 549 36,000  Level FlightAware ADS-B
Thu 10:31:15 AM 39.2860 -97.1790 249° West 478 550 36,000  Level FlightAware ADS-B
Thu 10:31:54 AM 39.2560 -97.2830 250° West 480 552 36,000  Level FlightAware ADS-B
Thu 10:32:28 AM 39.2290 -97.3720 249° West 481 554 36,000  Level FlightAware ADS-B
Thu 10:33:12 AM 39.1940 -97.4930 250° West 483 556 36,000  Level FlightAware ADS-B
Thu 10:33:57 AM 39.1590 -97.6130 249° West 483 556 36,000  Level FlightAware ADS-B
Thu 10:34:28 AM 39.1340 -97.6960 249° West 482 555 36,000  Level FlightAware ADS-B
Thu 10:35:13 AM 39.0990 -97.8140 249° West 484 557 36,000  Level FlightAware ADS-B
Thu 10:35:52 AM 39.0670 -97.9210 249° West 486 559 36,000  Level FlightAware ADS-B
Thu 10:36:34 AM 39.0330 -98.0320 249° West 488 562 36,000  Level FlightAware ADS-B
Thu 10:37:16 AM 38.9980 -98.1490 249° West 488 562 36,000  Level FlightAware ADS-B
Thu 10:37:56 AM 38.9650 -98.2580 249° West 489 563 36,000  Level FlightAware ADS-B
Thu 10:38:40 AM 38.9290 -98.3760 249° West 489 563 36,000  Level FlightAware ADS-B
Thu 10:39:20 AM 38.8960 -98.4840 249° West 489 563 36,000  Level FlightAware ADS-B
Thu 10:40:15 AM 38.8560 -98.6140 248° West 490 564 36,000 196 Level FlightAware ADS-B
Thu 10:40:52 AM 38.8140 -98.7290 245° Southwest 496 571 36,300 268 Climbing FlightAware ADS-B
Thu 10:42:07 AM 38.7510 -98.9110 246° West 498 573 36,500 107 Climbing FlightAware ADS-B
Thu 10:42:44 AM 38.7220 -98.9960 246° West 498 573 36,500  Level FlightAware ADS-B
Thu 10:43:31 AM 38.6840 -99.1040 246° West 498 573 36,500  Level FlightAware ADS-B
Thu 10:44:07 AM 38.6550 -99.1860 246° West 498 573 36,500  Level FlightAware ADS-B
Thu 10:45:35 AM 38.5850 -99.3880 246° West 498 573 36,500  Level FlightAware ADS-B
Thu 10:46:11 AM 38.5570 -99.4700 246° West 498 573 36,500 900 Level FlightAware ADS-B
Thu 10:47:15 AM 38.4610 -99.7450 246° West 496 571 38,000 1,011 Climbing FlightAware ADS-B
Thu 10:47:40 AM 38.4400 -99.8010 244° Southwest 496 571 38,000  Level FlightAware ADS-B
Thu 10:48:18 AM 38.4090 -99.8870 245° Southwest 496 571 38,000  Level FlightAware ADS-B
Thu 10:48:54 AM 38.3790 -99.9680 245° Southwest 496 571 38,000  Level FlightAware ADS-B
Thu 10:49:42 AM 38.3400 -100.0770 246° West 496 571 38,000  Level FlightAware ADS-B
Thu 10:50:18 AM 38.3100 -100.1580 245° Southwest 496 571 38,000  Level FlightAware ADS-B
Thu 10:51:19 AM 38.2600 -100.2950 245° Southwest 496 571 38,000  Level FlightAware ADS-B
Thu 10:51:56 AM 38.2290 -100.3780 245° Southwest 496 571 38,000  Level FlightAware ADS-B
Thu 10:52:44 AM 38.1900 -100.4860 245° Southwest 496 571 38,000  Level FlightAware ADS-B
Thu 10:53:20 AM 38.1600 -100.5670 245° Southwest 496 571 38,000  Level FlightAware ADS-B
Thu 10:54:08 AM 38.1200 -100.6750 245° Southwest 496 571 38,000  Level FlightAware ADS-B
Thu 10:54:44 AM 38.0910 -100.7560 246° West 496 571 38,000  Level FlightAware ADS-B
Thu 10:55:32 AM 38.0510 -100.8640 245° Southwest 496 571 38,000  Level FlightAware ADS-B
Thu 10:56:09 AM 38.0210 -100.9470 245° Southwest 496 571 38,000  Level FlightAware ADS-B
Thu 10:56:43 AM 37.9303 -101.2139 245° Southwest 483 556 38,000  Level Denver Center
Thu 10:57:18 AM 37.8939 -101.3114 245° Southwest 483 556 38,000  Level Kansas City Center
Thu 10:58:20 AM 37.8392 -101.4569 245° Southwest 482 555 38,000  Level Kansas City Center
Thu 10:59:21 AM 37.7761 -101.6258 245° Southwest 479 551 38,000  Level Kansas City Center
Thu 11:00:23 AM 37.7222 -101.7703 245° Southwest 477 549 38,000  Level Kansas City Center
Thu 11:01:25 AM 37.6581 -101.9383 244° Southwest 477 549 38,000  Level Kansas City Center
Thu 11:02:27 AM 37.6022 -102.0836 244° Southwest 480 552 38,000  Level Kansas City Center
Thu 11:03:29 AM 37.5386 -102.2531 245° Southwest 480 552 38,000  Level Kansas City Center
Thu 11:04:30 AM 37.4822 -102.3975 244° Southwest 481 554 38,000  Level Kansas City Center
Thu 11:05:32 AM 37.4264 -102.5422 244° Southwest 481 554 38,000  Level Kansas City Center
Thu 11:06:34 AM 37.3600 -102.7122 244° Southwest 484 557 38,000  Level Kansas City Center
Thu 11:07:36 AM 37.3039 -102.8572 244° Southwest 484 557 38,000  Level Kansas City Center
Thu 11:08:38 AM 37.2378 -103.0250 244° Southwest 481 554 38,000  Level Kansas City Center
Thu 11:09:48 AM 37.1725 -103.1978 245° Southwest 479 551 38,000  Level Albuquerque Center
Thu 11:10:50 AM 37.1142 -103.3414 243° Southwest 480 552 38,000  Level Albuquerque Center
Thu 11:11:52 AM 37.0475 -103.5097 244° Southwest 480 552 38,000  Level Albuquerque Center
Thu 11:12:54 AM 36.9906 -103.6528 244° Southwest 478 550 38,000  Level Albuquerque Center
Thu 11:13:55 AM 36.9233 -103.8208 243° Southwest 480 552 38,000  Level Albuquerque Center
Thu 11:14:57 AM 36.8653 -103.9639 243° Southwest 481 554 38,000  Level Albuquerque Center
Thu 11:15:59 AM 36.8075 -104.1058 243° Southwest 478 550 38,000  Level Albuquerque Center
Thu 11:17:01 AM 36.7400 -104.2717 243° Southwest 478 550 38,000  Level Albuquerque Center
Thu 11:18:03 AM 36.6742 -104.4311 243° Southwest 477 549 38,000  Level Albuquerque Center
Thu 11:19:05 AM 36.6131 -104.5781 243° Southwest 476 548 38,000  Level Albuquerque Center
Thu 11:20:07 AM 36.5528 -104.7244 243° Southwest 474 545 38,000  Level Albuquerque Center
Thu 11:21:08 AM 36.4919 -104.8708 243° Southwest 473 544 38,000  Level Albuquerque Center
Thu 11:22:10 AM 36.4417 -105.0192 247° West 467 537 38,000  Level Albuquerque Center
Thu 11:27:29 AM 36.1720 -105.8190 247° West 466 536 38,000  Level FlightAware ADS-B
Thu 11:28:09 AM 36.1390 -105.9160 247° West 466 536 38,000  Level FlightAware ADS-B
Thu 11:28:55 AM 36.0990 -106.0310 247° West 465 535 38,000  Level FlightAware ADS-B
Thu 11:29:36 AM 36.0650 -106.1280 247° West 465 535 38,000  Level FlightAware ADS-B
Thu 11:30:41 AM 36.0100 -106.2870 247° West 467 537 38,000  Level FlightAware ADS-B
Thu 11:31:19 AM 35.9780 -106.3810 247° West 468 539 38,000  Level FlightAware ADS-B
Thu 11:31:59 AM 35.9440 -106.4780 247° West 467 537 38,000  Level FlightAware ADS-B
Thu 11:32:39 AM 35.9090 -106.5770 246° West 466 536 38,000  Level FlightAware ADS-B
Thu 11:33:20 AM 35.8740 -106.6760 246° West 465 535 38,000  Level FlightAware ADS-B
Thu 11:34:03 AM 35.8370 -106.7820 247° West 467 537 38,000  Level FlightAware ADS-B
Thu 11:34:47 AM 35.7990 -106.8880 246° West 467 537 38,000  Level FlightAware ADS-B
Thu 11:35:27 AM 35.7640 -106.9860 246° West 469 540 38,000  Level FlightAware ADS-B
Thu 11:36:07 AM 35.7290 -107.0850 246° West 469 540 38,000  Level FlightAware ADS-B
Thu 11:36:44 AM 35.6980 -107.1730 247° West 469 540 38,000  Level FlightAware ADS-B
Thu 11:37:23 AM 35.6630 -107.2690 246° West 469 540 38,000  Level FlightAware ADS-B
Thu 11:38:10 AM 35.6230 -107.3820 246° West 471 542 38,000  Level FlightAware ADS-B
Thu 11:38:43 AM 35.5930 -107.4630 246° West 471 542 38,000  Level FlightAware ADS-B
Thu 11:39:27 AM 35.5540 -107.5730 246° West 470 541 38,000  Level FlightAware ADS-B
Thu 11:40:07 AM 35.5190 -107.6690 246° West 470 541 38,000  Level FlightAware ADS-B
Thu 11:40:45 AM 35.4850 -107.7610 246° West 471 542 38,000  Level FlightAware ADS-B
Thu 11:41:25 AM 35.4500 -107.8590 246° West 472 543 38,000  Level FlightAware ADS-B
Thu 11:42:10 AM 35.4150 -107.9510 245° Southwest 472 543 38,000  Level FlightAware ADS-B
Thu 11:42:41 AM 35.3830 -108.0410 246° West 471 542 38,000  Level FlightAware ADS-B
Thu 11:43:32 AM 35.3390 -108.1570 245° Southwest 471 542 38,000  Level FlightAware ADS-B
Thu 11:44:06 AM 35.3130 -108.2270 246° West 471 542 38,000  Level FlightAware ADS-B
Thu 11:44:56 AM 35.2730 -108.3300 245° Southwest 471 542 38,000  Level FlightAware ADS-B
Thu 11:45:38 AM 35.2410 -108.4160 246° West 471 542 38,000  Level FlightAware ADS-B
Thu 11:46:14 AM 35.2120 -108.4900 244° Southwest 471 542 38,000  Level FlightAware ADS-B
Thu 11:47:03 AM 35.1740 -108.5910 245° Southwest 471 542 38,000  Level FlightAware ADS-B
Thu 11:47:42 AM 35.1090 -108.7750 247° West 473 544 38,000  Level FlightAware ADS-B
Thu 11:48:22 AM 35.0730 -108.8720 246° West 472 543 38,000 -158 Level FlightAware ADS-B
Thu 11:48:58 AM 35.0390 -108.9610 245° Southwest 473 544 37,800 -692 Descending FlightAware ADS-B
Thu 11:49:40 AM 35.0020 -109.0600 245° Southwest 476 548 37,100 -977 Descending FlightAware ADS-B
Thu 11:50:24 AM 34.9610 -109.1680 245° Southwest 477 549 36,400 -776 Descending FlightAware ADS-B
Thu 11:51:05 AM 34.9240 -109.2680 246° West 477 549 36,000 -279 Descending FlightAware ADS-B
Thu 11:51:50 AM 34.8840 -109.3800 246° West 477 549 36,000  Level FlightAware ADS-B
Thu 11:52:30 AM 34.8480 -109.4790 246° West 474 545 36,000  Level FlightAware ADS-B
Thu 11:53:14 AM 34.8090 -109.5840 246° West 471 542 36,000  Level FlightAware ADS-B
Thu 11:53:54 AM 34.7730 -109.6810 246° West 470 541 36,000  Level FlightAware ADS-B
Thu 11:54:38 AM 34.7340 -109.7870 246° West 468 539 36,000 -357 Level FlightAware ADS-B
Thu 11:55:18 AM 34.6980 -109.8840 246° West 468 539 35,500 -433 Descending FlightAware ADS-B
Thu 11:56:15 AM 34.6530 -110.0000 245° Southwest 468 539 35,300 -960 Descending FlightAware ADS-B
Thu 11:56:58 AM 34.6090 -110.1230 247° West 472 543 33,900 -1,521 Descending FlightAware ADS-B
Thu 11:57:26 AM 34.5830 -110.1910 245° Southwest 469 540 33,500 -973 Descending FlightAware ADS-B
Thu 11:58:12 AM 34.5420 -110.3000 245° Southwest 462 532 32,700 -1,023 Descending FlightAware ADS-B
Thu 11:58:54 AM 34.5060 -110.3960 246° West 454 522 32,000 -1,200 Descending FlightAware ADS-B
Thu 11:59:32 AM 34.4720 -110.4850 245° Southwest 447 514 31,100 -1,744 Descending FlightAware ADS-B
Thu 12:00:20 PM 34.4320 -110.5930 246° West 442 509 29,500 -2,023 Descending FlightAware ADS-B
Thu 12:00:58 PM 34.4000 -110.6770 245° Southwest 447 514 28,200 -1,857 Descending FlightAware ADS-B
Thu 12:01:44 PM 34.3570 -110.7820 244° Southwest 445 512 26,900 -1,953 Descending FlightAware ADS-B
Thu 12:02:24 PM 34.3060 -110.8570 231° Southwest 441 507 25,400 -2,195 Descending FlightAware ADS-B
Thu 12:03:06 PM 34.2480 -110.9330 227° Southwest 434 499 23,900 -2,169 Descending FlightAware ADS-B
Thu 12:03:47 PM 34.1920 -111.0050 227° Southwest 425 489 22,400 -2,143 Descending FlightAware ADS-B
Thu 12:04:30 PM 34.1340 -111.0800 227° Southwest 418 481 20,900 -2,114 Descending FlightAware ADS-B
Thu 12:05:15 PM 34.0760 -111.1540 227° Southwest 411 473 19,300 -2,163 Descending FlightAware ADS-B
Thu 12:05:56 PM 34.0220 -111.2230 227° Southwest 403 464 17,800 -2,104 Descending FlightAware ADS-B
Thu 12:06:32 PM 33.9770 -111.2810 227° Southwest 395 455 16,600 -1,692 Descending FlightAware ADS-B
Thu 12:07:14 PM 33.9250 -111.3470 226° Southwest 372 428 15,600 -975 Descending FlightAware ADS-B
Thu 12:07:52 PM 33.8820 -111.4030 227° Southwest 339 390 15,300 -1,000 Descending FlightAware ADS-B
Thu 12:08:38 PM 33.8440 -111.4730 237° Southwest 332 382 14,200 -1,605 Descending FlightAware ADS-B
Thu 12:09:18 PM 33.8110 -111.5370 238° Southwest 332 382 13,000 -1,683 Descending FlightAware ADS-B
Thu 12:10:00 PM 33.7760 -111.6020 237° Southwest 327 376 11,900 -1,643 Descending FlightAware ADS-B
Thu 12:10:42 PM 33.7430 -111.6660 238° Southwest 321 369 10,700 -1,367 Descending FlightAware ADS-B
Thu 12:11:19 PM 33.7150 -111.7200 238° Southwest 307 353 10,100 -493 Descending FlightAware ADS-B
Thu 12:11:55 PM 33.6920 -111.7610 236° Southwest 283 326 10,100 -289 Level FlightAware ADS-B
Thu 12:12:42 PM 33.6540 -111.8310 237° Southwest 278 320 9,700 -507 Descending FlightAware ADS-B
Thu 12:13:06 PM 33.6370 -111.8610 236° Southwest 267 307 9,500 -474 Descending FlightAware ADS-B
Thu 12:13:20 PM 33.6280 -111.8790 239° Southwest 268 308 9,400 -615 Descending FlightAware ADS-B
Thu 12:13:45 PM 33.6110 -111.9090 236° Southwest 258 297 9,100 -340 Descending FlightAware ADS-B
Thu 12:14:13 PM 33.5940 -111.9420 238° Southwest 241 277 9,100 -316 Level FlightAware ADS-B
Thu 12:14:42 PM 33.5770 -111.9740 237° Southwest 234 269 8,800 -840 Descending FlightAware ADS-B
Thu 12:15:03 PM 33.5660 -111.9970 240° Southwest 234 269 8,400 -1,015 Descending FlightAware ADS-B
Thu 12:15:47 PM 33.5460 -112.0340 237° Southwest 237 273 7,700 -1,114 Descending FlightAware ADS-B
Thu 12:16:13 PM 33.5300 -112.0650 238° Southwest 240 276 7,100 -837 Descending FlightAware ADS-B
Thu 12:16:30 PM 33.5250 -112.0870 255° West 229 264 7,100 -130 Level FlightAware ADS-B
Thu 12:16:59 PM 33.5250 -112.1280 270° West 188 216 7,000 -490 Descending FlightAware ADS-B
Thu 12:17:19 PM 33.5250 -112.1480 270° West 183 211 6,700 -1,091 Descending FlightAware ADS-B
Thu 12:17:54 PM 33.5090 -112.1730 232° Southwest 176 203 6,000 -1,279 Descending FlightAware ADS-B
Thu 12:18:20 PM 33.4880 -112.1660 164° South 180 207 5,400 -1,176 Descending FlightAware ADS-B
Thu 12:18:45 PM 33.4700 -112.1590 162° South 152 175 5,000 -1,698 Descending FlightAware ADS-B
Thu 12:19:13 PM 33.4510 -112.1500 158° South 168 193 3,900 -2,250 Descending FlightAware ADS-B
Thu 12:19:25 PM 33.4450 -112.1420 132° Southeast 166 191 3,500 -1,846 Descending FlightAware ADS-B
Thu 12:19:39 PM 33.4420 -112.1300 107° East 161 185 3,100 -1,636 Descending FlightAware ADS-B
Thu 12:20:09 PM 33.4410 -112.1030 93° East 165 190 2,300 -1,047 Descending FlightAware ADS-B
Thu 12:21:05 PM 33.4410 -112.0520 90° East 161 185 1,600 -750 Descending FlightAware ADS-B
Thu 12:21:29 PM 33.4410 -112.0310 90° East 164 189 1,300 -360 Descending FlightAware ADS-B
Thu 12:21:55 PM 33.4410 -112.0110 90° East 164 189 1,300  Level FlightAware ADS-B

Login

Don't have an account? Register now (free) for customized features, flight alerts, and more!